Terminal Aerodrome Forecast
Issued by NWS Mt. Holly, NJ

Home | Current Version | Previous Version | Text Only | Print | Product List | Glossary On
Versions: 1 2 3 4 5 6 7 8 9 10 11 12 13 14 15 16 17 18 19 20 21 22 23 24 25 26 27 28 29 30 31 32
000
FTUS41 KPHI 282333
TAFPHL
TAF
KPHL 282333Z 2900/3006 20009KT P6SM SCT250
     FM290200 18005KT P6SM SCT150 BKN250
     FM291000 23008KT 4SM SHRA VCTS BKN015CB
     FM291500 25012KT P6SM BKN050
     FM292000 26013G19KT P6SM SCT050 BKN150
     FM292300 28009KT P6SM BKN150
     FM300300 VRB05KT P6SM OVC150=

USA.gov is the U.S. government's official web portal to all federal, state and local government web resources and services.